Shahrekord, Iran
Current Conditions -  °F | °C
As of 4:00 AM on Tuesday 21 Oct 2014 (Local Time) from OIFS Reporting Station
Few Clouds Few Clouds  
Wind Chill: 59°   Ceiling: Unl
Heat Index: 59°   Visibility: 6mi
Dew Point: 34°   Wind: 14mph
Humidity: 39%   Direction: 200°SSW
Pressure: 30.12"   Gusts: NA
Location:  32.33°N, 50.86°E
Report Text: OIFS 210100Z 20012KT 9999 FEW040 15/01 Q1020
Loading
Personal Weather Stations






























Interactive Weather Map
Tropical Storm Tracking
New forecast layout! Learn more

10-Day Weather Forecast

Advertisements
Track Severe Weather on mobile